Flight Track Log - Related Links

Times and Time Zones

All times are in EDT time to prevent confusion due to time zone crossing. See the JIA2328 flight status page for this flight to view local times or setup timezone preferences in your user account.


Time Position Orientation Groundspeed Altitude Reporting Facility
EDT Latitude Longitude Course Direction KTS MPH feet Rate Location/Type
Wed 05:52:56 PM 35.1950 -80.9356 106° East 151 174 1,300  Level Atlanta Center
Wed 05:54:15 PM 35.1317 -80.9075 160° South 234 269 3,500 2,156 Climbing Atlanta Center
Wed 05:55:04 PM 35.1131 -80.8344 107° East 295 339 5,900 2,597 Climbing Atlanta Center
Wed 05:55:22 PM 35.1106 -80.8169 100° East 284 327 6,400 1,615 Climbing Atlanta Center
Wed 05:56:00 PM 35.0667 -80.5112 90° East  Level FlightAware Approximate
Wed 05:56:22 PM 35.0933 -80.7183 102° East 315 362 8,000  Level Atlanta Center
Wed 05:57:00 PM 35.0399 -80.3870 106° East  Level FlightAware Approximate
Wed 05:58:00 PM 35.0104 -80.2633 106° East  Level FlightAware Approximate
Wed 05:58:31 PM 35.0267 -80.4997 110° East 313 360 12,200  Level Washington Center
Wed 05:59:29 PM 35.0144 -80.3875 98° East 322 371 14,800 2,319 Climbing Washington Center
Wed 06:00:30 PM 35.0025 -80.2728 97° East 334 384 16,800 2,033 Climbing Washington Center
Wed 06:01:30 PM 34.9858 -80.1575 100° East 348 400 18,900 1,091 Climbing Washington Center
Wed 06:02:31 PM 34.9592 -80.0369 105° East 356 410 19,000 50 Climbing Washington Center
Wed 06:03:31 PM 34.9572 -79.9178 91° East 356 410 19,000  Level Washington Center
Wed 06:04:29 PM 34.9619 -79.7889 87° East 361 415 19,000  Level Washington Center
Wed 06:05:30 PM 34.9644 -79.6597 89° East 376 433 19,000  Level Washington Center
Wed 06:06:30 PM 34.9686 -79.5331 88° East 376 433 19,000  Level Washington Center
Wed 06:07:30 PM 34.9728 -79.4067 88° East 381 438 19,000  Level Washington Center
Wed 06:08:31 PM 34.9767 -79.2775 88° East 381 438 19,000  Level Washington Center
Wed 06:09:31 PM 34.9786 -79.1483 89° East 381 438 19,000  Level Washington Center
Wed 06:10:29 PM 34.9822 -79.0217 88° East 381 438 19,000  Level Washington Center
Wed 06:11:29 PM 34.9817 -78.8950 90° East 381 438 19,000 -347 Level Washington Center
Wed 06:12:30 PM 34.9706 -78.7678 96° East 381 438 18,300 -1,150 Descending Washington Center
Wed 06:13:29 PM 34.9569 -78.6483 98° East 381 438 16,700 -1,550 Descending Washington Center
Wed 06:14:30 PM 34.9453 -78.5339 97° East 360 414 15,200 -1,488 Descending Washington Center
Wed 06:15:30 PM 34.9292 -78.4242 100° East 337 388 13,700 -1,525 Descending Washington Center
Wed 06:16:28 PM 34.9169 -78.3175 98° East 330 380 12,200 -1,513 Descending Washington Center
Wed 06:17:29 PM 34.9047 -78.2133 98° East 319 367 10,700 -1,488 Descending Washington Center
Wed 06:18:29 PM 34.8922 -78.1089 98° East 313 360 9,200 -843 Descending Washington Center
Wed 06:19:30 PM 34.8797 -78.0175 99° East 308 354 9,000 -645 Descending Washington Center
Wed 06:20:30 PM 34.9022 -77.9269 73° East 285 328 7,900 -1,300 Descending Washington Center
Wed 06:21:30 PM 34.9436 -77.8394 60° Northeast 285 328 6,400 -1,488 Descending Washington Center
Wed 06:22:31 PM 34.9847 -77.7544 59° Northeast 285 328 4,900 -1,210 Descending Washington Center
Wed 06:23:29 PM 35.0239 -77.6744 59° Northeast 279 321 4,000 -807 Descending Washington Center
Wed 06:24:30 PM 35.0542 -77.6042 62° Northeast 254 292 3,300 -689 Descending Washington Center

Login

Don't have an account? Register now (free) for customized features, flight alerts, and more!